sensor_id;sensor_type;location;lat;lon;timestamp;P1;durP1;ratioP1;P2;durP2;ratioP2
16288;SDS011;26089;43.538;5.250;2023-06-01T00:00:43;5.53;;;5.03;;
16288;SDS011;26089;43.538;5.250;2023-06-01T00:03:10;5.87;;;4.90;;
16288;SDS011;26089;43.538;5.250;2023-06-01T00:05:38;5.40;;;4.90;;
16288;SDS011;26089;43.538;5.250;2023-06-01T00:08:05;8.03;;;5.13;;
16288;SDS011;26089;43.538;5.250;2023-06-01T00:10:32;9.90;;;5.00;;
16288;SDS011;26089;43.538;5.250;2023-06-01T00:12:59;5.93;;;4.50;;
16288;SDS011;26089;43.538;5.250;2023-06-01T00:15:26;5.30;;;4.77;;
16288;SDS011;26089;43.538;5.250;2023-06-01T00:17:53;5.73;;;5.23;;
16288;SDS011;26089;43.538;5.250;2023-06-01T00:20:21;7.60;;;4.67;;
16288;SDS011;26089;43.538;5.250;2023-06-01T00:22:50;6.23;;;4.60;;
16288;SDS011;26089;43.538;5.250;2023-06-01T00:25:18;5.77;;;4.83;;
16288;SDS011;26089;43.538;5.250;2023-06-01T00:27:45;5.57;;;4.70;;
16288;SDS011;26089;43.538;5.250;2023-06-01T00:30:12;5.67;;;4.50;;
16288;SDS011;26089;43.538;5.250;2023-06-01T00:32:40;5.40;;;4.47;;
16288;SDS011;26089;43.538;5.250;2023-06-01T00:35:07;4.40;;;4.00;;
16288;SDS011;26089;43.538;5.250;2023-06-01T00:37:34;4.60;;;4.20;;
16288;SDS011;26089;43.538;5.250;2023-06-01T00:40:03;4.03;;;3.73;;
16288;SDS011;26089;43.538;5.250;2023-06-01T00:42:31;4.57;;;4.10;;
16288;SDS011;26089;43.538;5.250;2023-06-01T00:44:58;5.00;;;4.50;;
16288;SDS011;26089;43.538;5.250;2023-06-01T00:47:25;6.93;;;4.70;;
16288;SDS011;26089;43.538;5.250;2023-06-01T00:49:52;4.30;;;3.90;;
16288;SDS011;26089;43.538;5.250;2023-06-01T00:52:19;4.80;;;4.37;;
16288;SDS011;26089;43.538;5.250;2023-06-01T00:54:48;5.40;;;4.27;;
16288;SDS011;26089;43.538;5.250;2023-06-01T00:57:16;4.60;;;4.20;;
16288;SDS011;26089;43.538;5.250;2023-06-01T00:59:46;4.70;;;3.90;;
16288;SDS011;26089;43.538;5.250;2023-06-01T01:02:13;5.67;;;4.33;;
16288;SDS011;26089;43.538;5.250;2023-06-01T01:04:40;4.40;;;4.07;;
16288;SDS011;26089;43.538;5.250;2023-06-01T01:07:09;4.43;;;4.10;;
16288;SDS011;26089;43.538;5.250;2023-06-01T01:09:47;3.87;;;3.20;;
16288;SDS011;26089;43.538;5.250;2023-06-01T01:12:23;4.40;;;4.00;;
16288;SDS011;26089;43.538;5.250;2023-06-01T01:14:57;4.07;;;3.77;;
16288;SDS011;26089;43.538;5.250;2023-06-01T01:17:30;4.47;;;4.03;;
16288;SDS011;26089;43.538;5.250;2023-06-01T01:20:06;4.00;;;3.70;;
16288;SDS011;26089;43.538;5.250;2023-06-01T01:22:42;4.20;;;3.87;;
16288;SDS011;26089;43.538;5.250;2023-06-01T01:25:26;4.43;;;4.03;;
16288;SDS011;26089;43.538;5.250;2023-06-01T01:30:48;5.63;;;4.07;;
16288;SDS011;26089;43.538;5.250;2023-06-01T01:33:19;4.53;;;3.90;;
16288;SDS011;26089;43.538;5.250;2023-06-01T01:35:48;4.47;;;4.07;;
16288;SDS011;26089;43.538;5.250;2023-06-01T01:38:16;5.20;;;4.07;;
16288;SDS011;26089;43.538;5.250;2023-06-01T01:40:43;4.20;;;3.67;;
16288;SDS011;26089;43.538;5.250;2023-06-01T01:43:10;3.83;;;3.53;;
16288;SDS011;26089;43.538;5.250;2023-06-01T01:45:38;6.80;;;3.70;;
16288;SDS011;26089;43.538;5.250;2023-06-01T01:48:10;3.90;;;3.60;;
16288;SDS011;26089;43.538;5.250;2023-06-01T01:50:41;4.40;;;3.90;;
16288;SDS011;26089;43.538;5.250;2023-06-01T01:53:15;3.80;;;3.50;;
16288;SDS011;26089;43.538;5.250;2023-06-01T01:55:43;4.13;;;3.70;;
16288;SDS011;26089;43.538;5.250;2023-06-01T01:58:11;4.47;;;4.07;;
16288;SDS011;26089;43.538;5.250;2023-06-01T02:00:40;4.07;;;3.70;;
16288;SDS011;26089;43.538;5.250;2023-06-01T02:03:12;6.33;;;4.13;;
16288;SDS011;26089;43.538;5.250;2023-06-01T02:05:40;5.77;;;4.00;;
16288;SDS011;26089;43.538;5.250;2023-06-01T02:08:06;4.37;;;3.97;;
16288;SDS011;26089;43.538;5.250;2023-06-01T02:10:34;4.47;;;3.90;;
16288;SDS011;26089;43.538;5.250;2023-06-01T02:13:01;4.30;;;3.90;;
16288;SDS011;26089;43.538;5.250;2023-06-01T02:15:28;7.70;;;4.37;;
16288;SDS011;26089;43.538;5.250;2023-06-01T02:17:56;4.07;;;3.63;;
16288;SDS011;26089;43.538;5.250;2023-06-01T02:20:24;5.27;;;4.70;;
16288;SDS011;26089;43.538;5.250;2023-06-01T02:22:51;4.80;;;4.30;;
16288;SDS011;26089;43.538;5.250;2023-06-01T02:25:19;4.97;;;4.07;;
16288;SDS011;26089;43.538;5.250;2023-06-01T02:27:46;5.60;;;4.07;;
16288;SDS011;26089;43.538;5.250;2023-06-01T02:30:13;4.23;;;3.90;;
16288;SDS011;26089;43.538;5.250;2023-06-01T02:32:40;4.73;;;4.33;;
16288;SDS011;26089;43.538;5.250;2023-06-01T02:35:11;5.00;;;4.60;;
16288;SDS011;26089;43.538;5.250;2023-06-01T02:37:38;7.73;;;4.93;;
16288;SDS011;26089;43.538;5.250;2023-06-01T02:40:06;5.90;;;4.30;;
16288;SDS011;26089;43.538;5.250;2023-06-01T02:42:36;6.23;;;4.13;;
16288;SDS011;26089;43.538;5.250;2023-06-01T02:45:04;4.87;;;4.10;;
16288;SDS011;26089;43.538;5.250;2023-06-01T02:47:32;5.27;;;4.47;;
16288;SDS011;26089;43.538;5.250;2023-06-01T02:49:59;5.10;;;4.23;;
16288;SDS011;26089;43.538;5.250;2023-06-01T02:52:27;9.37;;;4.97;;
16288;SDS011;26089;43.538;5.250;2023-06-01T02:54:54;6.67;;;4.23;;
16288;SDS011;26089;43.538;5.250;2023-06-01T02:57:21;5.07;;;4.57;;
16288;SDS011;26089;43.538;5.250;2023-06-01T02:59:48;5.73;;;4.17;;
16288;SDS011;26089;43.538;5.250;2023-06-01T03:02:16;4.90;;;4.20;;
16288;SDS011;26089;43.538;5.250;2023-06-01T03:04:42;4.63;;;4.10;;
16288;SDS011;26089;43.538;5.250;2023-06-01T03:07:10;4.97;;;4.57;;
16288;SDS011;26089;43.538;5.250;2023-06-01T03:09:39;5.00;;;4.60;;
16288;SDS011;26089;43.538;5.250;2023-06-01T03:12:06;5.20;;;3.80;;
16288;SDS011;26089;43.538;5.250;2023-06-01T03:14:33;5.73;;;4.23;;
16288;SDS011;26089;43.538;5.250;2023-06-01T03:17:00;5.90;;;4.40;;
16288;SDS011;26089;43.538;5.250;2023-06-01T03:19:27;8.47;;;5.30;;
16288;SDS011;26089;43.538;5.250;2023-06-01T03:21:54;5.10;;;3.90;;
16288;SDS011;26089;43.538;5.250;2023-06-01T03:24:21;6.20;;;4.53;;
16288;SDS011;26089;43.538;5.250;2023-06-01T03:26:52;5.33;;;4.83;;
16288;SDS011;26089;43.538;5.250;2023-06-01T03:29:19;5.13;;;4.60;;
16288;SDS011;26089;43.538;5.250;2023-06-01T03:31:46;5.10;;;4.60;;
16288;SDS011;26089;43.538;5.250;2023-06-01T03:34:13;5.00;;;4.50;;
16288;SDS011;26089;43.538;5.250;2023-06-01T03:36:40;4.80;;;4.40;;
16288;SDS011;26089;43.538;5.250;2023-06-01T03:39:11;5.70;;;4.87;;
16288;SDS011;26089;43.538;5.250;2023-06-01T03:41:38;6.03;;;4.33;;
16288;SDS011;26089;43.538;5.250;2023-06-01T03:44:06;5.13;;;4.63;;
16288;SDS011;26089;43.538;5.250;2023-06-01T03:46:33;4.60;;;4.20;;
16288;SDS011;26089;43.538;5.250;2023-06-01T03:49:00;4.57;;;4.00;;
16288;SDS011;26089;43.538;5.250;2023-06-01T03:51:28;4.80;;;4.30;;
16288;SDS011;26089;43.538;5.250;2023-06-01T03:53:55;5.90;;;4.60;;
16288;SDS011;26089;43.538;5.250;2023-06-01T03:56:22;4.53;;;4.13;;
16288;SDS011;26089;43.538;5.250;2023-06-01T03:58:49;6.23;;;4.20;;
16288;SDS011;26089;43.538;5.250;2023-06-01T04:01:17;5.97;;;4.30;;
16288;SDS011;26089;43.538;5.250;2023-06-01T04:03:45;6.20;;;4.97;;
16288;SDS011;26089;43.538;5.250;2023-06-01T04:06:13;5.50;;;4.97;;
16288;SDS011;26089;43.538;5.250;2023-06-01T04:08:42;5.00;;;4.47;;
16288;SDS011;26089;43.538;5.250;2023-06-01T04:11:13;4.80;;;4.30;;
16288;SDS011;26089;43.538;5.250;2023-06-01T04:13:40;4.77;;;4.10;;
16288;SDS011;26089;43.538;5.250;2023-06-01T04:16:08;5.57;;;4.30;;
16288;SDS011;26089;43.538;5.250;2023-06-01T04:18:37;5.10;;;4.60;;
16288;SDS011;26089;43.538;5.250;2023-06-01T04:21:04;5.70;;;4.83;;
16288;SDS011;26089;43.538;5.250;2023-06-01T04:23:32;6.77;;;4.67;;
16288;SDS011;26089;43.538;5.250;2023-06-01T04:25:59;8.23;;;5.17;;
16288;SDS011;26089;43.538;5.250;2023-06-01T04:28:27;5.93;;;4.97;;
16288;SDS011;26089;43.538;5.250;2023-06-01T04:30:55;4.97;;;4.53;;
16288;SDS011;26089;43.538;5.250;2023-06-01T04:33:22;5.50;;;4.33;;
16288;SDS011;26089;43.538;5.250;2023-06-01T04:35:51;5.83;;;4.97;;
16288;SDS011;26089;43.538;5.250;2023-06-01T04:38:18;5.20;;;4.67;;
16288;SDS011;26089;43.538;5.250;2023-06-01T04:40:46;5.20;;;4.70;;
16288;SDS011;26089;43.538;5.250;2023-06-01T04:43:13;5.23;;;4.77;;
16288;SDS011;26089;43.538;5.250;2023-06-01T04:45:44;5.07;;;4.67;;
16288;SDS011;26089;43.538;5.250;2023-06-01T04:48:11;6.37;;;4.53;;
16288;SDS011;26089;43.538;5.250;2023-06-01T04:50:39;5.50;;;4.80;;
16288;SDS011;26089;43.538;5.250;2023-06-01T04:53:08;5.63;;;4.63;;
16288;SDS011;26089;43.538;5.250;2023-06-01T04:55:35;4.53;;;4.13;;
16288;SDS011;26089;43.538;5.250;2023-06-01T04:58:02;4.60;;;4.20;;
16288;SDS011;26089;43.538;5.250;2023-06-01T05:00:30;4.50;;;4.10;;
16288;SDS011;26089;43.538;5.250;2023-06-01T05:02:57;4.33;;;3.93;;
16288;SDS011;26089;43.538;5.250;2023-06-01T05:05:24;4.73;;;4.20;;
16288;SDS011;26089;43.538;5.250;2023-06-01T05:07:51;4.87;;;4.37;;
16288;SDS011;26089;43.538;5.250;2023-06-01T05:10:19;6.37;;;4.23;;
16288;SDS011;26089;43.538;5.250;2023-06-01T05:12:46;4.80;;;4.40;;
16288;SDS011;26089;43.538;5.250;2023-06-01T05:15:13;5.17;;;4.20;;
16288;SDS011;26089;43.538;5.250;2023-06-01T05:17:41;5.17;;;4.70;;
16288;SDS011;26089;43.538;5.250;2023-06-01T05:20:08;4.90;;;4.37;;
16288;SDS011;26089;43.538;5.250;2023-06-01T05:22:36;4.43;;;4.13;;
16288;SDS011;26089;43.538;5.250;2023-06-01T05:25:04;4.87;;;4.37;;
16288;SDS011;26089;43.538;5.250;2023-06-01T05:27:33;4.90;;;4.03;;
16288;SDS011;26089;43.538;5.250;2023-06-01T05:30:01;5.00;;;4.27;;
16288;SDS011;26089;43.538;5.250;2023-06-01T05:32:28;4.80;;;4.30;;
16288;SDS011;26089;43.538;5.250;2023-06-01T05:34:55;4.67;;;4.00;;
16288;SDS011;26089;43.538;5.250;2023-06-01T05:37:22;5.63;;;4.37;;
16288;SDS011;26089;43.538;5.250;2023-06-01T05:39:49;6.87;;;3.87;;
16288;SDS011;26089;43.538;5.250;2023-06-01T05:42:16;5.20;;;4.27;;
16288;SDS011;26089;43.538;5.250;2023-06-01T05:44:45;5.60;;;4.13;;
16288;SDS011;26089;43.538;5.250;2023-06-01T05:47:12;5.57;;;4.47;;
16288;SDS011;26089;43.538;5.250;2023-06-01T05:49:39;4.73;;;4.20;;
16288;SDS011;26089;43.538;5.250;2023-06-01T05:52:06;5.70;;;4.27;;
16288;SDS011;26089;43.538;5.250;2023-06-01T05:54:33;4.60;;;3.97;;
16288;SDS011;26089;43.538;5.250;2023-06-01T05:57:00;5.27;;;4.50;;
16288;SDS011;26089;43.538;5.250;2023-06-01T05:59:27;4.73;;;3.90;;
16288;SDS011;26089;43.538;5.250;2023-06-01T06:01:55;4.13;;;3.83;;
16288;SDS011;26089;43.538;5.250;2023-06-01T06:04:23;4.57;;;4.03;;
16288;SDS011;26089;43.538;5.250;2023-06-01T06:06:50;5.27;;;3.93;;
16288;SDS011;26089;43.538;5.250;2023-06-01T06:09:17;5.70;;;3.67;;
16288;SDS011;26089;43.538;5.250;2023-06-01T06:11:44;4.97;;;3.70;;
16288;SDS011;26089;43.538;5.250;2023-06-01T06:14:11;4.30;;;3.90;;
16288;SDS011;26089;43.538;5.250;2023-06-01T06:16:38;4.80;;;4.03;;
16288;SDS011;26089;43.538;5.250;2023-06-01T06:19:07;5.67;;;4.10;;
16288;SDS011;26089;43.538;5.250;2023-06-01T06:21:34;6.33;;;3.90;;
16288;SDS011;26089;43.538;5.250;2023-06-01T06:24:03;4.23;;;3.73;;
16288;SDS011;26089;43.538;5.250;2023-06-01T06:26:31;4.43;;;4.03;;
16288;SDS011;26089;43.538;5.250;2023-06-01T06:28:58;5.80;;;4.53;;
16288;SDS011;26089;43.538;5.250;2023-06-01T06:31:25;4.87;;;3.60;;
16288;SDS011;26089;43.538;5.250;2023-06-01T06:33:52;5.03;;;4.13;;
16288;SDS011;26089;43.538;5.250;2023-06-01T06:36:20;3.73;;;3.43;;
16288;SDS011;26089;43.538;5.250;2023-06-01T06:38:47;5.07;;;4.20;;
16288;SDS011;26089;43.538;5.250;2023-06-01T06:41:15;3.83;;;3.43;;
16288;SDS011;26089;43.538;5.250;2023-06-01T06:43:42;3.80;;;3.50;;
16288;SDS011;26089;43.538;5.250;2023-06-01T06:46:09;4.30;;;3.80;;
16288;SDS011;26089;43.538;5.250;2023-06-01T06:48:35;4.60;;;3.73;;
16288;SDS011;26089;43.538;5.250;2023-06-01T06:51:03;4.13;;;3.73;;
16288;SDS011;26089;43.538;5.250;2023-06-01T06:53:31;5.17;;;3.73;;
16288;SDS011;26089;43.538;5.250;2023-06-01T06:55:58;3.83;;;3.43;;
16288;SDS011;26089;43.538;5.250;2023-06-01T06:58:25;5.23;;;3.20;;
16288;SDS011;26089;43.538;5.250;2023-06-01T07:00:53;4.23;;;3.70;;
16288;SDS011;26089;43.538;5.250;2023-06-01T07:03:20;4.03;;;3.63;;
16288;SDS011;26089;43.538;5.250;2023-06-01T07:05:47;4.30;;;3.90;;
16288;SDS011;26089;43.538;5.250;2023-06-01T07:08:15;4.40;;;4.00;;
16288;SDS011;26089;43.538;5.250;2023-06-01T07:10:43;4.47;;;4.03;;
16288;SDS011;26089;43.538;5.250;2023-06-01T07:13:10;3.90;;;3.60;;
16288;SDS011;26089;43.538;5.250;2023-06-01T07:15:37;5.90;;;4.40;;
16288;SDS011;26089;43.538;5.250;2023-06-01T07:18:05;5.90;;;3.83;;
16288;SDS011;26089;43.538;5.250;2023-06-01T07:20:33;4.60;;;3.77;;
16288;SDS011;26089;43.538;5.250;2023-06-01T07:23:00;4.70;;;3.70;;
16288;SDS011;26089;43.538;5.250;2023-06-01T07:25:27;4.33;;;3.70;;
16288;SDS011;26089;43.538;5.250;2023-06-01T07:27:55;4.43;;;4.03;;
16288;SDS011;26089;43.538;5.250;2023-06-01T07:30:23;4.20;;;3.90;;
16288;SDS011;26089;43.538;5.250;2023-06-01T07:32:50;6.23;;;3.53;;
16288;SDS011;26089;43.538;5.250;2023-06-01T07:35:17;5.37;;;3.40;;
16288;SDS011;26089;43.538;5.250;2023-06-01T07:37:44;4.13;;;3.73;;
16288;SDS011;26089;43.538;5.250;2023-06-01T07:40:11;5.27;;;3.80;;
16288;SDS011;26089;43.538;5.250;2023-06-01T07:42:38;4.83;;;3.70;;
16288;SDS011;26089;43.538;5.250;2023-06-01T07:45:07;3.93;;;3.57;;
16288;SDS011;26089;43.538;5.250;2023-06-01T08:00:17;5.13;;;4.53;;
16288;SDS011;26089;43.538;5.250;2023-06-01T08:02:45;5.73;;;4.10;;
16288;SDS011;26089;43.538;5.250;2023-06-01T08:05:12;4.83;;;4.37;;
16288;SDS011;26089;43.538;5.250;2023-06-01T08:07:42;5.83;;;4.00;;
16288;SDS011;26089;43.538;5.250;2023-06-01T08:10:11;5.63;;;4.83;;
16288;SDS011;26089;43.538;5.250;2023-06-01T08:12:38;8.60;;;4.77;;
16288;SDS011;26089;43.538;5.250;2023-06-01T08:15:07;5.73;;;4.63;;
16288;SDS011;26089;43.538;5.250;2023-06-01T08:17:37;7.97;;;5.03;;
16288;SDS011;26089;43.538;5.250;2023-06-01T08:20:05;4.83;;;4.40;;
16288;SDS011;26089;43.538;5.250;2023-06-01T08:22:36;7.77;;;5.00;;
16288;SDS011;26089;43.538;5.250;2023-06-01T08:25:03;6.10;;;4.87;;
16288;SDS011;26089;43.538;5.250;2023-06-01T08:27:31;6.87;;;5.40;;
16288;SDS011;26089;43.538;5.250;2023-06-01T08:29:58;7.00;;;5.17;;
16288;SDS011;26089;43.538;5.250;2023-06-01T08:32:25;7.57;;;5.23;;
16288;SDS011;26089;43.538;5.250;2023-06-01T08:34:53;5.23;;;4.73;;
16288;SDS011;26089;43.538;5.250;2023-06-01T08:37:20;5.80;;;5.20;;
16288;SDS011;26089;43.538;5.250;2023-06-01T08:39:47;6.47;;;5.00;;
16288;SDS011;26089;43.538;5.250;2023-06-01T08:42:15;5.27;;;4.77;;
16288;SDS011;26089;43.538;5.250;2023-06-01T08:44:47;5.87;;;5.27;;
16288;SDS011;26089;43.538;5.250;2023-06-01T08:47:16;8.37;;;5.33;;
16288;SDS011;26089;43.538;5.250;2023-06-01T08:49:43;5.50;;;5.00;;
16288;SDS011;26089;43.538;5.250;2023-06-01T08:52:13;6.43;;;4.97;;
16288;SDS011;26089;43.538;5.250;2023-06-01T08:54:45;7.22;;;5.15;;
16288;SDS011;26089;43.538;5.250;2023-06-01T08:57:13;5.50;;;5.00;;
16288;SDS011;26089;43.538;5.250;2023-06-01T08:59:41;5.63;;;4.95;;
16288;SDS011;26089;43.538;5.250;2023-06-01T09:02:08;7.00;;;4.87;;
16288;SDS011;26089;43.538;5.250;2023-06-01T09:04:36;6.57;;;4.97;;
16288;SDS011;26089;43.538;5.250;2023-06-01T09:07:07;6.15;;;5.53;;
16288;SDS011;26089;43.538;5.250;2023-06-01T09:09:36;7.25;;;5.03;;
16288;SDS011;26089;43.538;5.250;2023-06-01T09:12:19;6.55;;;4.80;;
16288;SDS011;26089;43.538;5.250;2023-06-01T09:14:49;6.53;;;5.25;;
16288;SDS011;26089;43.538;5.250;2023-06-01T09:17:21;5.40;;;4.90;;
16288;SDS011;26089;43.538;5.250;2023-06-01T09:19:50;6.70;;;5.32;;
16288;SDS011;26089;43.538;5.250;2023-06-01T09:22:21;6.38;;;4.82;;
16288;SDS011;26089;43.538;5.250;2023-06-01T09:24:56;6.43;;;5.40;;
16288;SDS011;26089;43.538;5.250;2023-06-01T09:27:24;6.57;;;5.80;;
16288;SDS011;26089;43.538;5.250;2023-06-01T09:29:54;6.28;;;5.43;;
16288;SDS011;26089;43.538;5.250;2023-06-01T09:45:15;6.60;;;5.28;;
16288;SDS011;26089;43.538;5.250;2023-06-01T09:47:44;5.40;;;4.85;;
16288;SDS011;26089;43.538;5.250;2023-06-01T09:50:11;43.30;;;34.88;;
16288;SDS011;26089;43.538;5.250;2023-06-01T09:52:57;6.75;;;5.70;;
16288;SDS011;26089;43.538;5.250;2023-06-01T09:55:24;7.63;;;5.25;;
16288;SDS011;26089;43.538;5.250;2023-06-01T09:57:52;6.65;;;5.22;;
16288;SDS011;26089;43.538;5.250;2023-06-01T10:00:22;6.45;;;5.28;;
16288;SDS011;26089;43.538;5.250;2023-06-01T10:02:50;6.15;;;5.43;;
16288;SDS011;26089;43.538;5.250;2023-06-01T10:05:18;6.07;;;5.20;;
16288;SDS011;26089;43.538;5.250;2023-06-01T10:07:46;5.63;;;5.00;;
16288;SDS011;26089;43.538;5.250;2023-06-01T10:10:14;5.13;;;4.50;;
16288;SDS011;26089;43.538;5.250;2023-06-01T10:12:41;5.47;;;4.80;;
16288;SDS011;26089;43.538;5.250;2023-06-01T10:15:11;4.53;;;4.13;;
16288;SDS011;26089;43.538;5.250;2023-06-01T10:17:39;7.70;;;4.53;;
16288;SDS011;26089;43.538;5.250;2023-06-01T10:20:09;5.78;;;4.95;;
16288;SDS011;26089;43.538;5.250;2023-06-01T10:22:38;6.25;;;4.72;;
16288;SDS011;26089;43.538;5.250;2023-06-01T10:25:08;5.88;;;4.65;;
16288;SDS011;26089;43.538;5.250;2023-06-01T10:27:39;5.55;;;4.90;;
16288;SDS011;26089;43.538;5.250;2023-06-01T10:30:09;5.50;;;4.95;;
16288;SDS011;26089;43.538;5.250;2023-06-01T10:32:44;6.97;;;4.30;;
16288;SDS011;26089;43.538;5.250;2023-06-01T10:38:26;5.68;;;5.13;;
16288;SDS011;26089;43.538;5.250;2023-06-01T10:40:53;5.88;;;5.30;;
16288;SDS011;26089;43.538;5.250;2023-06-01T10:43:55;6.30;;;4.78;;
16288;SDS011;26089;43.538;5.250;2023-06-01T10:46:35;5.30;;;4.80;;
16288;SDS011;26089;43.538;5.250;2023-06-01T10:49:06;5.25;;;4.70;;
16288;SDS011;26089;43.538;5.250;2023-06-01T11:07:37;13.20;;;5.30;;
16288;SDS011;26089;43.538;5.250;2023-06-01T11:10:05;5.20;;;4.70;;
16288;SDS011;26089;43.538;5.250;2023-06-01T11:15:50;7.03;;;4.97;;
16288;SDS011;26089;43.538;5.250;2023-06-01T11:18:57;5.28;;;4.78;;
16288;SDS011;26089;43.538;5.250;2023-06-01T11:21:25;5.18;;;4.68;;
16288;SDS011;26089;43.538;5.250;2023-06-01T11:23:55;8.57;;;5.07;;
16288;SDS011;26089;43.538;5.250;2023-06-01T11:26:34;5.93;;;4.53;;
16288;SDS011;26089;43.538;5.250;2023-06-01T11:29:03;5.30;;;4.80;;
16288;SDS011;26089;43.538;5.250;2023-06-01T11:31:34;6.43;;;5.10;;
16288;SDS011;26089;43.538;5.250;2023-06-01T11:34:02;5.40;;;4.90;;
16288;SDS011;26089;43.538;5.250;2023-06-01T11:36:29;5.93;;;5.30;;
16288;SDS011;26089;43.538;5.250;2023-06-01T11:38:59;6.30;;;5.35;;
16288;SDS011;26089;43.538;5.250;2023-06-01T11:41:26;6.50;;;5.32;;
16288;SDS011;26089;43.538;5.250;2023-06-01T11:43:54;6.88;;;5.35;;
16288;SDS011;26089;43.538;5.250;2023-06-01T11:46:21;6.72;;;5.30;;
16288;SDS011;26089;43.538;5.250;2023-06-01T11:48:59;5.28;;;4.78;;
16288;SDS011;26089;43.538;5.250;2023-06-01T11:51:30;9.48;;;5.25;;
16288;SDS011;26089;43.538;5.250;2023-06-01T11:54:01;5.97;;;5.35;;
16288;SDS011;26089;43.538;5.250;2023-06-01T11:56:29;6.65;;;5.68;;
16288;SDS011;26089;43.538;5.250;2023-06-01T11:58:57;6.63;;;6.03;;
16288;SDS011;26089;43.538;5.250;2023-06-01T12:01:25;6.88;;;6.13;;
16288;SDS011;26089;43.538;5.250;2023-06-01T12:03:52;8.10;;;5.68;;
16288;SDS011;26089;43.538;5.250;2023-06-01T12:06:22;8.38;;;6.07;;
16288;SDS011;26089;43.538;5.250;2023-06-01T12:08:50;6.13;;;5.25;;
16288;SDS011;26089;43.538;5.250;2023-06-01T12:11:22;8.73;;;6.25;;
16288;SDS011;26089;43.538;5.250;2023-06-01T12:13:52;9.60;;;6.20;;
16288;SDS011;26089;43.538;5.250;2023-06-01T12:16:20;8.02;;;5.65;;
16288;SDS011;26089;43.538;5.250;2023-06-01T12:18:47;10.05;;;6.03;;
16288;SDS011;26089;43.538;5.250;2023-06-01T12:21:14;6.78;;;5.82;;
16288;SDS011;26089;43.538;5.250;2023-06-01T12:23:42;7.10;;;5.78;;
16288;SDS011;26089;43.538;5.250;2023-06-01T12:26:09;8.15;;;5.85;;
16288;SDS011;26089;43.538;5.250;2023-06-01T12:28:47;10.60;;;7.30;;
16288;SDS011;26089;43.538;5.250;2023-06-01T12:31:16;10.80;;;7.35;;
16288;SDS011;26089;43.538;5.250;2023-06-01T12:33:44;14.90;;;8.87;;
16288;SDS011;26089;43.538;5.250;2023-06-01T12:36:27;14.73;;;8.97;;
16288;SDS011;26089;43.538;5.250;2023-06-01T12:38:57;16.83;;;9.77;;
16288;SDS011;26089;43.538;5.250;2023-06-01T12:41:26;12.40;;;8.93;;
16288;SDS011;26089;43.538;5.250;2023-06-01T12:43:55;22.03;;;11.90;;
16288;SDS011;26089;43.538;5.250;2023-06-01T12:46:23;16.50;;;10.70;;
16288;SDS011;26089;43.538;5.250;2023-06-01T12:48:51;17.83;;;10.53;;
16288;SDS011;26089;43.538;5.250;2023-06-01T12:51:19;14.13;;;11.07;;
16288;SDS011;26089;43.538;5.250;2023-06-01T12:53:46;12.53;;;11.20;;
16288;SDS011;26089;43.538;5.250;2023-06-01T12:56:14;13.37;;;11.20;;
16288;SDS011;26089;43.538;5.250;2023-06-01T12:58:41;13.43;;;10.17;;
16288;SDS011;26089;43.538;5.250;2023-06-01T13:01:10;14.77;;;11.17;;
16288;SDS011;26089;43.538;5.250;2023-06-01T13:03:37;14.87;;;11.37;;
16288;SDS011;26089;43.538;5.250;2023-06-01T13:06:04;17.87;;;12.53;;
16288;SDS011;26089;43.538;5.250;2023-06-01T13:08:32;13.83;;;11.03;;
16288;SDS011;26089;43.538;5.250;2023-06-01T13:10:59;18.90;;;12.77;;
16288;SDS011;26089;43.538;5.250;2023-06-01T13:13:26;16.00;;;13.83;;
16288;SDS011;26089;43.538;5.250;2023-06-01T13:15:53;15.03;;;11.50;;
16288;SDS011;26089;43.538;5.250;2023-06-01T13:18:22;13.83;;;10.57;;
16288;SDS011;26089;43.538;5.250;2023-06-01T13:20:49;13.53;;;9.87;;
16288;SDS011;26089;43.538;5.250;2023-06-01T13:23:17;10.80;;;9.20;;
16288;SDS011;26089;43.538;5.250;2023-06-01T13:25:44;13.80;;;9.90;;
16288;SDS011;26089;43.538;5.250;2023-06-01T13:28:11;14.90;;;9.50;;
16288;SDS011;26089;43.538;5.250;2023-06-01T13:30:38;17.20;;;9.57;;
16288;SDS011;26089;43.538;5.250;2023-06-01T13:33:05;11.80;;;8.47;;
16288;SDS011;26089;43.538;5.250;2023-06-01T13:35:34;11.90;;;7.27;;
16288;SDS011;26089;43.538;5.250;2023-06-01T13:38:01;12.07;;;7.83;;
16288;SDS011;26089;43.538;5.250;2023-06-01T13:40:28;11.37;;;7.77;;
16288;SDS011;26089;43.538;5.250;2023-06-01T13:42:55;14.03;;;7.73;;
16288;SDS011;26089;43.538;5.250;2023-06-01T13:45:23;14.60;;;7.53;;
16288;SDS011;26089;43.538;5.250;2023-06-01T13:47:50;10.63;;;7.67;;
16288;SDS011;26089;43.538;5.250;2023-06-01T13:50:20;10.40;;;7.70;;
16288;SDS011;26089;43.538;5.250;2023-06-01T13:52:48;15.23;;;7.70;;
16288;SDS011;26089;43.538;5.250;2023-06-01T13:55:15;7.90;;;7.07;;
16288;SDS011;26089;43.538;5.250;2023-06-01T13:57:42;10.33;;;7.77;;
16288;SDS011;26089;43.538;5.250;2023-06-01T14:00:11;10.60;;;7.77;;
16288;SDS011;26089;43.538;5.250;2023-06-01T14:02:39;14.30;;;7.20;;
16288;SDS011;26089;43.538;5.250;2023-06-01T14:05:06;9.80;;;7.27;;
16288;SDS011;26089;43.538;5.250;2023-06-01T14:07:35;11.33;;;8.40;;
16288;SDS011;26089;43.538;5.250;2023-06-01T14:10:04;10.50;;;8.20;;
16288;SDS011;26089;43.538;5.250;2023-06-01T14:12:32;11.97;;;9.20;;
16288;SDS011;26089;43.538;5.250;2023-06-01T14:14:59;10.27;;;9.27;;
16288;SDS011;26089;43.538;5.250;2023-06-01T14:17:26;10.67;;;9.67;;
16288;SDS011;26089;43.538;5.250;2023-06-01T14:19:53;10.67;;;9.07;;
16288;SDS011;26089;43.538;5.250;2023-06-01T14:22:20;10.27;;;8.20;;
16288;SDS011;26089;43.538;5.250;2023-06-01T14:24:47;8.90;;;7.80;;
16288;SDS011;26089;43.538;5.250;2023-06-01T14:27:15;10.73;;;8.43;;
16288;SDS011;26089;43.538;5.250;2023-06-01T14:29:42;10.47;;;8.60;;
16288;SDS011;26089;43.538;5.250;2023-06-01T14:32:09;10.80;;;8.43;;
16288;SDS011;26089;43.538;5.250;2023-06-01T14:34:36;9.83;;;8.17;;
16288;SDS011;26089;43.538;5.250;2023-06-01T14:37:03;9.83;;;8.23;;
16288;SDS011;26089;43.538;5.250;2023-06-01T14:39:32;11.03;;;8.73;;
16288;SDS011;26089;43.538;5.250;2023-06-01T14:41:59;13.80;;;8.97;;
16288;SDS011;26089;43.538;5.250;2023-06-01T14:44:27;10.90;;;9.00;;
16288;SDS011;26089;43.538;5.250;2023-06-01T14:46:54;10.40;;;8.83;;
16288;SDS011;26089;43.538;5.250;2023-06-01T14:49:21;10.80;;;8.77;;
16288;SDS011;26089;43.538;5.250;2023-06-01T14:51:48;13.00;;;9.07;;
16288;SDS011;26089;43.538;5.250;2023-06-01T14:54:15;9.70;;;7.83;;
16288;SDS011;26089;43.538;5.250;2023-06-01T14:56:42;9.90;;;8.90;;
16288;SDS011;26089;43.538;5.250;2023-06-01T14:59:09;10.80;;;7.63;;
16288;SDS011;26089;43.538;5.250;2023-06-01T15:01:37;8.83;;;7.53;;
16288;SDS011;26089;43.538;5.250;2023-06-01T15:04:05;8.73;;;7.70;;
16288;SDS011;26089;43.538;5.250;2023-06-01T15:06:32;11.67;;;8.70;;
16288;SDS011;26089;43.538;5.250;2023-06-01T15:09:01;9.90;;;7.97;;
16288;SDS011;26089;43.538;5.250;2023-06-01T15:11:28;8.83;;;8.00;;
16288;SDS011;26089;43.538;5.250;2023-06-01T15:13:55;9.97;;;6.33;;
16288;SDS011;26089;43.538;5.250;2023-06-01T15:16:22;9.67;;;7.40;;
16288;SDS011;26089;43.538;5.250;2023-06-01T15:18:51;7.63;;;6.83;;
16288;SDS011;26089;43.538;5.250;2023-06-01T15:21:18;8.90;;;7.27;;
16288;SDS011;26089;43.538;5.250;2023-06-01T15:23:45;7.73;;;7.00;;
16288;SDS011;26089;43.538;5.250;2023-06-01T15:26:12;10.87;;;7.53;;
16288;SDS011;26089;43.538;5.250;2023-06-01T15:28:39;9.97;;;8.30;;
16288;SDS011;26089;43.538;5.250;2023-06-01T15:31:07;10.70;;;7.67;;
16288;SDS011;26089;43.538;5.250;2023-06-01T15:33:34;12.43;;;8.13;;
16288;SDS011;26089;43.538;5.250;2023-06-01T15:36:02;9.50;;;7.50;;
16288;SDS011;26089;43.538;5.250;2023-06-01T15:38:29;9.13;;;7.73;;
16288;SDS011;26089;43.538;5.250;2023-06-01T15:40:56;9.80;;;8.17;;
16288;SDS011;26089;43.538;5.250;2023-06-01T15:43:23;9.57;;;8.60;;